Weather observations for the past three days for
Hebron, Hebron Municipal Airport
Metric (Imperial)
Date Time (cdt) Wind (kph) Vis. (km) Weather Sky Cond. Temperature (ºC) Relative Humidity Wind Chill (°C) Heat Index (°C) Pressure Precipitation (cm)
Air Dwpt 6 hour altimeter (cm) sea level (mb) 1 hr 3 hr 6 hr
Max. Min.
05 12:55 E 11 16.09 Fair CLR 34 20.9 34 21.3 46% 37 76.12 0.0
05 12:35 E 6 16.09 Fair CLR 33.2 20.7 48% 36 76.15 0.0
05 12:15 E 6 16.09 Fair CLR 33.3 20.2 46% 36 76.15 0.0
05 11:55 SE 6 16.09 Fair CLR 32.8 21.2 50% 36 76.15 0.0
05 11:35 Calm 16.09 Fair CLR 32.9 20.4 48% 35 76.15 0.0
05 11:15 S 6 16.09 Fair CLR 31.7 21 53% 35 76.12 0.0
05 10:55 S 7 16.09 Fair CLR 31.2 20.9 54% 34 76.1 0.0
05 10:35 SW 7 16.09 Fair CLR 30.7 21.1 57% 33 76.1 0.0
05 10:15 SW 7 16.09 Fair CLR 29.9 21 59% 32 76.1 0.0
05 09:55 SW 11 16.09 Fair CLR 29.5 20.8 60% 32 76.07 0.0
05 09:35 SW 7 16.09 Fair CLR 28.6 20.9 63% 31 76.07 0.0
05 09:15 S 11 16.09 Fair CLR 27.2 21 69% 29 76.05 0.0
05 08:55 S 6 16.09 Fair CLR 26.5 20.9 71% 28 76.05 0.0
05 08:35 Calm 16.09 Fair CLR 25.6 21.3 77% 27 76.07 0.0
05 08:15 Calm 16.09 Fair CLR 23.9 20.8 83% 24 76.05 0.0
05 07:55 Calm 16.09 Fair CLR 22.6 20.2 86% 76.02 0.0
05 07:35 Calm 16.09 Fair CLR 21.6 20 91% 76 0.0
05 07:15 Calm 16.09 Fair CLR 21.5 19.7 90% 76 0.0
05 06:55 Calm 16.09 Fair CLR 21.9 19.6 23.7 21 87% 75.97 0.0
05 06:35 E 6 16.09 Fair CLR 22.1 19.8 87% 75.97 0.0
05 06:15 Calm 16.09 Fair CLR 23.7 20.1 80% 75.95 0.0
05 05:55 S 9 16.09 Fair CLR 23.5 20.1 81% 75.95 0.0
05 05:35 S 9 16.09 Fair CLR 23.1 20.1 83% 75.95 0.0
05 05:15 S 7 16.09 Fair CLR 22.8 20.1 85% 75.95 0.0
05 04:55 Calm 16.09 Fair CLR 21.1 20 93% 75.95 0.0
05 04:35 Calm 16.09 Fair CLR 21.4 19.7 90% 75.97 0.0
05 04:15 Calm 16.09 Fair CLR 22.1 20 88% 75.97 0.0
05 03:55 Calm 16.09 Fair CLR 22.3 20.2 88% 76 0.0
05 03:35 Calm 16.09 Fair CLR 21.9 20.1 90% 76 0.0
05 03:15 Calm 16.09 Fair CLR 21.7 20.3 92% 76.02 0.0
05 02:55 Calm 16.09 Fair CLR 21.9 20.3 91% 76.02 0.0
05 02:35 Calm 16.09 Fair CLR 22.3 20.5 90% 76.02 0.0
05 02:15 Calm 16.09 Fair CLR 22.1 20.5 91% 76.02 0.0
05 01:55 Calm 16.09 Fair CLR 22.7 20.5 87% 76.02 0.0
05 01:35 Calm 16.09 Fair CLR 23.4 20.5 84% 76.02 0.0
05 01:15 SE 6 16.09 Fair CLR 23.3 20.7 85% 76 0.0
05 00:55 Calm 16.09 Fair CLR 23.5 20.8 32 23.5 85% 76 0.0
05 00:35 Calm 16.09 Fair CLR 24.2 21 82% 25 76 0.0
05 00:15 S 6 16.09 Fair CLR 24.2 21.1 83% 24 76 0.0
04 23:55 S 6 16.09 Fair CLR 24.5 21.2 82% 25 76 0.0
04 23:35 SE 7 16.09 Fair CLR 24.7 21.5 82% 25 76 0.0
04 23:15 SE 7 16.09 Fair CLR 25.2 21.5 80% 26 76 0.0
04 22:55 SE 7 16.09 Fair CLR 25.1 21.8 82% 26 76 0.0
04 22:35 SE 6 16.09 Fair CLR 24.7 22 85% 25 76 0.0
04 22:15 SE 6 16.09 Fair CLR 25.3 22 82% 26 76 0.0
04 21:55 Calm 16.09 Fair CLR 25.6 22.1 81% 27 75.97 0.0
04 21:35 Calm 16.09 Fair CLR 26 22.1 79% 28 75.95 0.0
04 21:15 SE 6 16.09 Fair CLR 26.9 22.2 76% 29 75.95 0.0
04 20:55 SE 7 16.09 Fair CLR 26.7 22.5 78% 29 75.92 0.0
04 20:35 SE 9 16.09 Fair CLR 27.3 22.6 76% 30 75.92 0.0
04 20:15 SE 7 16.09 Fair CLR 28.2 22.6 72% 31 75.92 0.0
04 19:55 SE 7 16.09 Fair CLR 28.9 22.7 69% 32 75.92 0.0
04 19:35 SE 7 16.09 Fair CLR 30 22.5 64% 34 75.92 0.0
04 19:15 SE 11 16.09 Fair CLR 30.5 22.1 61% 34 75.9 0.0
04 18:55 SE 9 16.09 Fair CLR 32.3 21.7 35.9 32.3 54% 36 75.9 0.0
04 18:35 SE 13 16.09 Fair CLR 34 22.1 50% 38 75.87 0.0
04 18:15 SE 13 16.09 Fair CLR 34 22.2 50% 38 75.87 0.0
04 17:55 SE 15 16.09 Fair CLR 34.3 21.6 47% 38 75.9 0.0
04 17:35 SE 11 16.09 Fair CLR 35.3 22.2 47% 40 75.9 0.0
04 17:15 SE 15 16.09 Fair CLR 35.6 22.3 46% 41 75.9 0.0
04 16:55 SE 13 16.09 Fair CLR 35.5 22.1 46% 40 75.92 0.0
04 16:35 SE 11 16.09 Fair CLR 35.4 22.7 48% 41 75.92 0.0
04 16:15 SE 9 16.09 Fair CLR 35.3 22.8 48% 41 75.92 0.0
04 15:55 SE 13 16.09 Fair CLR 35.6 22.7 47% 41 75.92 0.0
04 15:35 SE 11 16.09 Fair CLR 35.5 22.9 48% 41 75.92 0.0
04 15:15 SE 9 16.09 Fair CLR 35 23 50% 41 75.95 0.0
04 14:55 SE 11 16.09 Fair CLR 35.3 22.8 48% 41 75.95 0.0
04 14:35 SE 7 16.09 Fair CLR 35.1 22.1 47% 40 75.95 0.0
04 14:15 E 6 16.09 Fair CLR 34.8 22.4 48% 40 75.97 0.0
04 13:55 SE 7 16.09 Fair CLR 34.4 22.3 49% 39 75.97 0.0
04 13:35 S 7 16.09 Fair CLR 34.1 22.4 50% 39 76 0.0
04 13:15 S 9 16.09 Fair CLR 33.6 22.7 53% 38 76 0.0
04 12:55 S 11 16.09 Fair CLR 33.1 22.5 33.2 25.1 54% 38 76.02 0.0
04 12:35 SW 9 16.09 Fair CLR 32.7 22.3 54% 37 76.02 0.0
04 12:15 SW 7 16.09 Fair CLR 32.3 22.2 55% 36 76.02 0.0
04 11:55 SW 9 16.09 Fair CLR 32.1 22.6 57% 36 76.02 0.0
04 11:35 S 7 16.09 Fair CLR 31.5 22.3 58% 35 76 0.0
04 11:15 SW 9 16.09 Fair CLR 30.8 22 59% 34 76 0.0
04 10:55 SW 7 16.09 Fair CLR 30.5 22 60% 34 75.97 0.0
04 10:35 SW 7 16.09 Fair CLR 29.8 22 63% 33 76 0.0
04 10:15 SW 15 16.09 Fair CLR 29.2 22.1 66% 32 75.97 0.0
04 09:55 SW 15 16.09 Fair CLR 28.6 21.9 67% 31 75.97 0.0
04 09:35 S 11 16.09 Fair CLR 27.6 21.5 69% 30 75.97 0.0
04 09:15 SW 13 16.09 Fair CLR 27.3 21.5 71% 29 75.97 0.0
04 08:55 SW 9 16.09 Fair CLR 26.6 21.2 72% 28 75.97 0.0
04 08:35 SW 9 16.09 Fair CLR 26.1 21.1 74% 28 75.97 0.0
04 08:15 S 7 16.09 Fair CLR 25.7 21 75% 27 75.95 0.0
04 07:55 S 9 16.09 Fair CLR 25.4 20.8 76% 27 75.95 0.0
04 07:35 SW 11 16.09 Fair CLR 25.1 20.6 76% 26 75.95 0.0
04 07:15 SW 13 16.09 Fair CLR 25.2 20.5 75% 26 75.92 0.0
04 06:55 SW 13 16.09 Fair CLR 25.5 20.5 26 24.6 74% 27 75.9 0.0
04 06:35 SW 15 16.09 Fair CLR 25.3 20.5 75% 26 75.9 0.0
04 06:15 S 13 16.09 Fair CLR 25 20.5 76% 26 75.9 0.0
04 05:55 S 11 16.09 Partly Cloudy SCT110 25.3 20.6 75% 26 75.9 0.0
04 05:35 S 17 16.09 Partly Cloudy SCT110 25.7 20.6 74% 27 75.9 0.0
04 05:15 SW 13 16.09 Fair CLR 25.6 20.6 74% 27 75.9 0.0
04 04:55 S 13 16.09 Fair CLR 25.7 20.6 74% 27 75.9 0.0
04 04:35 S 13 16.09 Fair CLR 25.5 20.5 74% 27 75.87 0.0
04 04:15 S 11 16.09 Fair CLR 25.3 20.5 75% 26 75.87 0.0
04 03:55 S 9 16.09 Fair CLR 25 20.4 76% 26 75.87 0.0
04 03:35 S 9 16.09 Fair CLR 25 20.2 75% 26 75.9 0.0
04 03:15 S 6 16.09 Fair CLR 25 20 74% 26 75.9 0.0
04 02:55 S 7 16.09 Fair CLR 24.7 19.8 74% 26 75.9 0.0
04 02:35 S 7 16.09 Fair CLR 24.7 19.4 72% 26 75.9 0.0
04 02:15 S 6 16.09 Fair CLR 24.6 19 71% 26 75.9 0.0
04 01:55 S 7 16.09 Fair CLR 25.1 18.9 69% 26 75.9 0.0
04 01:35 S 7 16.09 Fair CLR 25.1 18.8 68% 26 75.9 0.0
04 01:15 S 7 16.09 Fair CLR 25.2 18.7 67% 26 75.87 0.0
04 00:55 SW 7 16.09 Fair CLR 26 18.5 34.2 26 63% 27 75.87 0.0
04 00:35 S 6 16.09 Fair CLR 26 18.5 63% 27 75.84 0.0
04 00:15 S 7 16.09 Fair CLR 26.8 18.5 60% 28 75.82 0.0
03 23:55 S 9 16.09 Fair CLR 27.4 18.3 58% 28 75.79 0.0
03 23:35 S 9 16.09 Fair CLR 28.1 18.1 55% 29 75.79 0.0
03 23:15 S 13 16.09 Fair CLR 28.5 17.9 53% 29 75.77 0.0
03 22:55 S 13 16.09 Fair CLR 29.1 17.7 50% 30 75.77 0.0
03 22:35 S 15 16.09 Fair CLR 29.5 17.6 49% 30 75.77 0.0
03 22:15 S 19 16.09 Fair CLR 30 17.4 47% 31 75.74 0.0
03 21:55 S 20 16.09 Fair CLR 30.1 17.4 46% 31 75.74 0.0
03 21:35 S 15 G 26 16.09 Fair CLR 30.1 17.6 47% 31 75.72 0.0
03 21:15 S 17 G 26 16.09 Fair CLR 30.3 18 48% 31 75.69 0.0
03 20:55 S 15 16.09 Fair CLR 30.5 18.5 49% 32 75.67 0.0
03 20:35 S 15 16.09 Fair CLR 31 18.4 47% 32 75.64 0.0
03 20:15 S 17 16.09 Fair CLR 31.2 18.7 47% 32 75.64 0.0
03 19:55 S 15 16.09 Fair CLR 31.4 19 48% 33 75.62 0.0
03 19:35 S 11 16.09 Fair CLR 32.6 18.7 44% 34 75.59 0.0
03 19:15 S 15 16.09 Fair CLR 33.6 18.9 42% 35 75.59 0.0
03 18:55 S 17 16.09 Fair CLR 34.2 19.3 36.8 33.5 41% 36 75.59 0.0
03 18:35 S 19 16.09 Fair CLR 35 19.2 39% 37 75.59 0.0
03 18:15 S 13 G 26 16.09 Fair CLR 35.6 19.3 38% 38 75.59 0.0
03 17:55 S 19 G 26 16.09 Fair CLR 36.1 18.9 36% 38 75.57 0.0
03 17:35 S 28 G 39 16.09 Fair CLR 36.5 18.4 34% 38 75.59 0.0
03 17:15 S 24 G 33 16.09 Fair CLR 36.5 19 36% 39 75.59 0.0
03 16:55 S 31 G 41 16.09 Fair CLR 36.6 18.7 35% 39 75.59 0.0
03 16:35 S 26 G 39 16.09 Fair CLR 36.8 19.4 36% 39 75.62 0.0
03 16:15 S 26 G 35 16.09 Fair CLR 36.2 19.4 37% 39 75.64 0.0
03 15:55 S 28 G 33 16.09 Fair CLR 36.1 20.1 39% 39 75.64 0.0
03 15:35 S 22 16.09 Fair CLR 35.8 20.1 40% 39 75.67 0.0
03 15:15 S 19 G 31 16.09 Fair CLR 36 20.3 40% 39 75.69 0.0
03 14:55 S 20 G 31 16.09 Fair CLR 35.8 20 40% 39 75.69 0.0
03 14:35 S 20 G 35 16.09 Fair CLR 35.9 19.4 38% 38 75.72 0.0
03 14:15 S 20 G 30 16.09 Fair CLR 35.6 19.6 39% 38 75.72 0.0
03 13:55 S 24 G 33 16.09 Fair CLR 35.3 18.9 38% 37 75.74 0.0
03 13:35 S 22 G 35 16.09 Fair CLR 34.7 19.3 40% 37 75.74 0.0
03 13:15 S 26 G 35 16.09 Fair CLR 34 20.4 45% 37 75.74 0.0
03 12:55 S 28 G 37 16.09 Fair CLR 33.7 20 33.7 26.1 45% 36 75.77 0.0
03 12:35 S 30 G 39 16.09 Fair CLR 33 20.2 47% 35 75.77 0.0
03 12:15 SW 26 G 46 16.09 Fair CLR 32.3 19.7 47% 34 75.77 0.0
03 11:55 S 33 G 43 16.09 Fair and Breezy CLR 32.1 19.3 47% 34 75.77 0.0
03 11:35 S 24 G 35 16.09 Fair CLR 32 19.8 48% 34 75.79 0.0
03 11:15 S 24 G 35 16.09 Fair CLR 30.5 20 53% 32 75.77 0.0
03 10:55 S 22 G 35 16.09 Partly Cloudy SCT120 30.1 19.9 54% 32 75.79 0.0
03 10:35 SW 20 G 30 16.09 Partly Cloudy SCT120 30.5 19.9 53% 32 75.82 0.0
03 10:15 S 17 G 26 16.09 Fair CLR 28.5 19.6 59% 30 75.82 0.0
03 09:55 S 24 G 31 16.09 Fair CLR 29 19.7 57% 31 75.82 0.0
03 09:35 S 22 G 33 16.09 Fair CLR 28.6 19.4 58% 30 75.82 0.0
03 09:15 S 20 G 30 16.09 Fair CLR 27.8 19.1 59% 29 75.82 0.0
03 08:55 S 17 16.09 Fair CLR 27.1 19.1 62% 28 75.82 0.0
03 08:35 S 13 16.09 Fair CLR 26.7 18.9 62% 28 75.84 0.0
03 08:15 S 11 16.09 Fair CLR 26.2 18.6 63% 27 75.87 0.0
03 07:55 S 11 16.09 Fair CLR 26.3 18.3 62% 27 75.84 0.0
03 07:35 S 15 16.09 Partly Cloudy SCT120 26.5 18.1 60% 27 75.82 0.0
03 07:15 S 13 16.09 Partly Cloudy SCT110 26.5 18 60% 27 75.82 0.0
03 06:55 S 17 G 26 16.09 Partly Cloudy SCT110 26.7 17.7 27.8 25.1 58% 28 75.82 0.0
03 06:35 S 15 16.09 Partly Cloudy SCT110 26.5 17.8 59% 27 75.82 0.0
03 06:15 S 15 16.09 Partly Cloudy SCT110 26.5 17.7 59% 27 75.82 0.0
03 05:55 S 17 G 26 16.09 Fair CLR 26.5 17.5 58% 27 75.82 0.0
03 05:35 S 17 16.09 Fair CLR 25.8 17.7 61% 27 75.82 0.0
03 05:15 S 13 16.09 Fair CLR 25.2 17.7 63% 26 75.82 0.0
03 04:55 S 11 16.09 Fair CLR 25.2 17.7 63% 26 75.82 0.0
03 04:35 S 11 16.09 Partly Cloudy SCT120 25.8 17.6 61% 27 75.82 0.0
03 04:15 S 13 16.09 Partly Cloudy SCT110 26.3 17.5 58% 27 75.82 0.0
03 03:55 S 15 16.09 Partly Cloudy SCT110 26.7 17.4 57% 28 75.82 0.0
03 03:35 S 17 16.09 Fair CLR 27.2 17.2 54% 28 75.82 0.0
03 03:15 S 17 16.09 Mostly Cloudy BKN110 27.5 17.2 53% 28 75.82 0.0
03 02:55 S 17 16.09 Mostly Cloudy BKN110 27.6 17.2 53% 28 75.82 0.0
03 02:35 S 17 16.09 Partly Cloudy SCT110 27.6 17.2 53% 28 75.82 0.0
03 02:15 S 17 16.09 Fair CLR 27.6 17.2 53% 28 75.84 0.0
03 01:55 S 11 16.09 Fair CLR 27.5 17.2 53% 28 75.84 0.0
03 01:35 S 13 16.09 Fair CLR 27.5 17.2 53% 28 75.82 0.0
03 01:15 S 15 16.09 Fair CLR 27.3 17.3 54% 28 75.82 0.0
03 00:55 S 11 16.09 Fair CLR 27.1 17.5 33.1 27 56% 28 75.82 0.0
03 00:35 S 11 16.09 Fair CLR 27.5 17.2 53% 28 75.82 0.0
03 00:15 S 13 16.09 Fair CLR 27.6 17 52% 28 75.82 0.0
02 23:55 S 13 16.09 Fair CLR 27.8 17 52% 28 75.82 0.0
02 23:35 S 15 16.09 Fair CLR 28.1 17 51% 29 75.82 0.0
02 23:15 S 17 16.09 Fair CLR 28 17.3 52% 29 75.82 0.0
02 22:55 S 17 16.09 Fair CLR 28 17.5 53% 29 75.82 0.0
02 22:35 S 15 16.09 Fair CLR 28 17.6 53% 29 75.82 0.0
02 22:15 S 13 16.09 Fair CLR 27.8 18 55% 29 75.79 0.0
02 21:55 S 11 16.09 Fair CLR 27.5 18.2 57% 28 75.79 0.0
02 21:35 SE 13 16.09 Fair CLR 27.6 18.2 57% 29 75.79 0.0
02 21:15 SE 11 16.09 Fair CLR 27 18.5 60% 28 75.77 0.0
02 20:55 SE 11 16.09 Fair CLR 27.4 18.5 58% 28 75.77 0.0
02 20:35 SE 9 16.09 Fair CLR 27.6 18.9 59% 29 75.74 0.0
02 20:15 SE 11 16.09 Fair CLR 28.5 18.6 55% 30 75.74 0.0
02 19:55 SE 9 16.09 Fair CLR 29.6 18.5 51% 31 75.74 0.0
02 19:35 SE 9 16.09 Fair CLR 31 18.2 46% 32 75.74 0.0
02 19:15 S 11 16.09 Fair CLR 32 18.4 44% 33 75.74 0.0
02 18:55 S 11 16.09 Fair CLR 33.1 18 37.2 33.1 41% 34 75.72 0.0
02 18:35 S 15 16.09 Fair CLR 34.5 16.9 35% 35 75.74 0.0
02 18:15 S 15 16.09 Fair CLR 35.1 16.9 34% 36 75.74 0.0
02 17:55 S 13 16.09 Fair CLR 35.6 17.4 34% 37 75.74 0.0
02 17:35 S 17 G 28 16.09 Fair CLR 36.4 16.4 30% 37 75.74 0.0
02 17:15 S 13 16.09 Fair CLR 36.5 16.8 31% 37 75.74 0.0
02 16:55 S 19 16.09 Fair CLR 36.8 16.8 31% 38 75.74 0.0
02 16:35 S 15 16.09 Fair CLR 36.6 17 31% 37 75.77 0.0
02 16:15 S 26 G 33 16.09 Fair CLR 36.8 17 31% 38 75.77 0.0
02 15:55 S 19 G 33 16.09 Fair CLR 37 17.2 31% 38 75.79 0.0
02 15:35 SW 17 G 30 16.09 Fair CLR 37.1 17.2 31% 38 75.82 0.0
02 15:15 S 17 G 31 16.09 Fair CLR 36.7 17.5 32% 38 75.84 0.0
02 14:55 S 20 G 33 16.09 Fair CLR 36.5 17 31% 37 75.84 0.0
02 14:35 S 22 G 30 16.09 Fair CLR 36.2 17.2 32% 37 75.87 0.0
02 14:15 S 20 G 31 16.09 Fair CLR 36 16.9 32% 37 75.9 0.0
02 13:55 S 24 G 31 16.09 Fair CLR 35.7 17.3 34% 37 75.9 0.0
02 13:40 SW 20 G 33 16.09 Fair CLR 35.2 16.7 33% 36 75.92 0.0
Date Time (cdt) Wind (kph) Vis. (km) Weather Sky Cond. Air Dwpt Max. Min. Relative Humidity Wind Chill (°C) Heat Index (°C) altimeter (cm) sea level (mb) 1 hr 3 hr 6 hr
6 hour
Temperature (ºC) Pressure Precipitation (cm)